Tomini Victory — V7XE9 — position and weather

sailwx.info

Track history (hours):
 
Tides and Currents Weather Stations Pressure Air Temp Water Temp Dewpoint Dewpoint Depression Visibility Wind Speed Wind Dir Waves Ship Positions

Tomini Victory

Last reported at 2018-Feb-16 11:26 UTC. Time now 2018-Feb-22 10:56 UTC.
Position S 07°09' E 112°40'.

Length 190 m; draft 6.6 m.

Type: Cargo ship. MMSI: 538004462.

Date/timePositionNaut miles runAvg speedWind from/ knotsBaromVisibWave heightAir tempDewpointWater temp
2018-Feb-16 11:26S 07°09' E 112°40'0 0.0
2018-Feb-16 07:23S 07°09' E 112°40'0 0.0
2018-Feb-15 05:11S 07°09' E 112°40'0 0.0
2018-Feb-15 01:26S 07°09' E 112°40'  
2018-Feb-07 08:42N 01°17' E 103°59'0 0.0
2018-Feb-07 08:15N 01°17' E 103°59'0 0.1
2018-Feb-07 07:48N 01°17' E 103°59'0 0.0
2018-Feb-07 07:18N 01°17' E 103°59'0 0.0
2018-Feb-07 07:00N 01°17' E 103°59'1 1.2
2018-Feb-07 06:30N 01°17' E 103°59'2 4.9
2018-Feb-07 06:00N 01°16' E 103°57'2 3.5
2018-Feb-07 05:30N 01°14' E 103°56'2 3.8
2018-Feb-07 05:01N 01°13' E 103°55'4 8.0
2018-Feb-07 04:30N 01°11' E 103°51'4 8.1
2018-Feb-07 03:59N 01°09' E 103°48'4 8.3
2018-Feb-07 03:28N 01°06' E 103°45'4 8.0
2018-Feb-07 03:00N 01°04' E 103°42'4 7.8
2018-Feb-07 02:30N 01°03' E 103°38'8 8.3
2018-Feb-07 01:30N 01°07' E 103°31'  
Track history (hours):
 
Tides and Currents Weather Stations Pressure Air Temp Water Temp Dewpoint Dewpoint Depression Visibility Wind Speed Wind Dir Waves Ship Positions

Tomini Victory

Last reported at 2018-Feb-16 11:26 UTC. Time now 2018-Feb-22 10:56 UTC.
Position S 07°09' E 112°40'.

Length 190 m; draft 6.6 m.

Type: Cargo ship. MMSI: 538004462.

Date/timePositionNaut miles runAvg speedWind from/ knotsBaromVisibWave heightAir tempDewpointWater temp
2018-Feb-16 11:26S 07°09' E 112°40'0 0.0
2018-Feb-16 07:23S 07°09' E 112°40'0 0.0
2018-Feb-15 05:11S 07°09' E 112°40'0 0.0
2018-Feb-15 01:26S 07°09' E 112°40'  
2018-Feb-07 08:42N 01°17' E 103°59'0 0.0
2018-Feb-07 08:15N 01°17' E 103°59'0 0.1
2018-Feb-07 07:48N 01°17' E 103°59'0 0.0
2018-Feb-07 07:18N 01°17' E 103°59'0 0.0
2018-Feb-07 07:00N 01°17' E 103°59'1 1.2
2018-Feb-07 06:30N 01°17' E 103°59'2 4.9
2018-Feb-07 06:00N 01°16' E 103°57'2 3.5
2018-Feb-07 05:30N 01°14' E 103°56'2 3.8
2018-Feb-07 05:01N 01°13' E 103°55'4 8.0
2018-Feb-07 04:30N 01°11' E 103°51'4 8.1
2018-Feb-07 03:59N 01°09' E 103°48'4 8.3
2018-Feb-07 03:28N 01°06' E 103°45'4 8.0
2018-Feb-07 03:00N 01°04' E 103°42'4 7.8
2018-Feb-07 02:30N 01°03' E 103°38'8 8.3
2018-Feb-07 01:30N 01°07' E 103°31'  

Dump ship's entire track history